sensor_id;sensor_type;location;lat;lon;timestamp;temperature;humidity
14188;DHT22;7175;51.978;5.330;2023-06-19T00:00:59;22.60;99.90
14188;DHT22;7175;51.978;5.330;2023-06-19T00:03:27;22.60;99.90
14188;DHT22;7175;51.978;5.330;2023-06-19T00:05:55;22.60;99.90
14188;DHT22;7175;51.978;5.330;2023-06-19T00:08:25;22.60;99.90
14188;DHT22;7175;51.978;5.330;2023-06-19T00:10:54;22.60;99.90
14188;DHT22;7175;51.978;5.330;2023-06-19T00:16:31;22.50;99.90
14188;DHT22;7175;51.978;5.330;2023-06-19T00:18:59;22.50;99.90
14188;DHT22;7175;51.978;5.330;2023-06-19T00:21:30;22.50;99.90
14188;DHT22;7175;51.978;5.330;2023-06-19T00:23:58;22.40;99.90
14188;DHT22;7175;51.978;5.330;2023-06-19T00:26:28;22.40;99.90
14188;DHT22;7175;51.978;5.330;2023-06-19T00:28:58;22.30;99.90
14188;DHT22;7175;51.978;5.330;2023-06-19T00:31:26;22.20;99.90
14188;DHT22;7175;51.978;5.330;2023-06-19T00:33:57;22.20;99.90
14188;DHT22;7175;51.978;5.330;2023-06-19T00:36:26;22.20;99.90
14188;DHT22;7175;51.978;5.330;2023-06-19T00:38:55;22.20;99.90
14188;DHT22;7175;51.978;5.330;2023-06-19T00:41:26;22.10;99.90
14188;DHT22;7175;51.978;5.330;2023-06-19T00:43:58;22.00;99.90
14188;DHT22;7175;51.978;5.330;2023-06-19T00:46:26;22.00;99.90
14188;DHT22;7175;51.978;5.330;2023-06-19T00:48:55;22.00;99.90
14188;DHT22;7175;51.978;5.330;2023-06-19T00:51:24;21.90;99.90
14188;DHT22;7175;51.978;5.330;2023-06-19T00:53:54;21.80;99.90
14188;DHT22;7175;51.978;5.330;2023-06-19T00:56:23;21.80;99.90
14188;DHT22;7175;51.978;5.330;2023-06-19T00:58:52;21.70;99.90
14188;DHT22;7175;51.978;5.330;2023-06-19T01:01:21;21.70;99.90
14188;DHT22;7175;51.978;5.330;2023-06-19T01:03:57;21.60;99.90
14188;DHT22;7175;51.978;5.330;2023-06-19T01:06:36;21.60;99.90
14188;DHT22;7175;51.978;5.330;2023-06-19T01:09:09;21.50;99.90
14188;DHT22;7175;51.978;5.330;2023-06-19T01:11:42;21.50;99.90
14188;DHT22;7175;51.978;5.330;2023-06-19T01:14:15;21.40;99.90
14188;DHT22;7175;51.978;5.330;2023-06-19T01:16:46;21.40;99.90
14188;DHT22;7175;51.978;5.330;2023-06-19T01:19:18;21.30;99.90
14188;DHT22;7175;51.978;5.330;2023-06-19T01:21:49;21.30;99.90
14188;DHT22;7175;51.978;5.330;2023-06-19T01:24:19;21.20;99.90
14188;DHT22;7175;51.978;5.330;2023-06-19T01:26:47;21.20;99.90
14188;DHT22;7175;51.978;5.330;2023-06-19T01:29:17;21.10;99.90
14188;DHT22;7175;51.978;5.330;2023-06-19T01:31:50;21.10;99.90
14188;DHT22;7175;51.978;5.330;2023-06-19T01:34:21;21.10;99.90
14188;DHT22;7175;51.978;5.330;2023-06-19T01:36:51;21.00;99.90
14188;DHT22;7175;51.978;5.330;2023-06-19T01:39:21;21.00;99.90
14188;DHT22;7175;51.978;5.330;2023-06-19T01:41:50;21.00;99.90
14188;DHT22;7175;51.978;5.330;2023-06-19T01:44:20;21.10;99.90
14188;DHT22;7175;51.978;5.330;2023-06-19T01:46:48;21.10;99.90
14188;DHT22;7175;51.978;5.330;2023-06-19T01:49:18;21.10;99.90
14188;DHT22;7175;51.978;5.330;2023-06-19T01:51:46;21.10;99.90
14188;DHT22;7175;51.978;5.330;2023-06-19T01:54:14;21.10;99.90
14188;DHT22;7175;51.978;5.330;2023-06-19T01:56:44;21.00;99.90
14188;DHT22;7175;51.978;5.330;2023-06-19T01:59:13;21.00;99.90
14188;DHT22;7175;51.978;5.330;2023-06-19T02:01:42;21.00;99.90
14188;DHT22;7175;51.978;5.330;2023-06-19T02:04:10;20.90;99.90
14188;DHT22;7175;51.978;5.330;2023-06-19T02:06:40;20.90;99.90
14188;DHT22;7175;51.978;5.330;2023-06-19T02:09:08;20.90;99.90
14188;DHT22;7175;51.978;5.330;2023-06-19T02:11:37;20.90;99.90
14188;DHT22;7175;51.978;5.330;2023-06-19T02:14:06;20.90;99.90
14188;DHT22;7175;51.978;5.330;2023-06-19T02:16:35;20.90;99.90
14188;DHT22;7175;51.978;5.330;2023-06-19T02:19:03;20.90;99.90
14188;DHT22;7175;51.978;5.330;2023-06-19T02:21:32;20.90;99.90
14188;DHT22;7175;51.978;5.330;2023-06-19T02:24:00;20.90;99.90
14188;DHT22;7175;51.978;5.330;2023-06-19T02:26:28;20.90;99.90
14188;DHT22;7175;51.978;5.330;2023-06-19T02:28:57;20.90;99.90
14188;DHT22;7175;51.978;5.330;2023-06-19T02:31:26;20.90;99.90
14188;DHT22;7175;51.978;5.330;2023-06-19T02:33:55;20.90;99.90
14188;DHT22;7175;51.978;5.330;2023-06-19T02:36:24;20.90;99.90
14188;DHT22;7175;51.978;5.330;2023-06-19T02:38:56;20.90;99.90
14188;DHT22;7175;51.978;5.330;2023-06-19T02:41:25;20.90;99.90
14188;DHT22;7175;51.978;5.330;2023-06-19T02:43:54;20.90;99.90
14188;DHT22;7175;51.978;5.330;2023-06-19T02:46:22;20.90;99.90
14188;DHT22;7175;51.978;5.330;2023-06-19T02:48:52;20.90;99.90
14188;DHT22;7175;51.978;5.330;2023-06-19T02:51:20;20.80;99.90
14188;DHT22;7175;51.978;5.330;2023-06-19T02:53:48;20.80;99.90
14188;DHT22;7175;51.978;5.330;2023-06-19T02:56:17;20.80;99.90
14188;DHT22;7175;51.978;5.330;2023-06-19T02:58:46;20.80;99.90
14188;DHT22;7175;51.978;5.330;2023-06-19T03:01:15;20.80;99.90
14188;DHT22;7175;51.978;5.330;2023-06-19T03:03:44;20.80;99.90
14188;DHT22;7175;51.978;5.330;2023-06-19T03:06:15;20.80;99.90
14188;DHT22;7175;51.978;5.330;2023-06-19T03:08:46;20.80;99.90
14188;DHT22;7175;51.978;5.330;2023-06-19T03:11:15;20.80;99.90
14188;DHT22;7175;51.978;5.330;2023-06-19T03:13:45;20.70;99.90
14188;DHT22;7175;51.978;5.330;2023-06-19T03:16:13;20.70;99.90
14188;DHT22;7175;51.978;5.330;2023-06-19T03:18:42;20.80;99.90
14188;DHT22;7175;51.978;5.330;2023-06-19T03:21:15;20.70;99.90
14188;DHT22;7175;51.978;5.330;2023-06-19T03:23:44;20.80;99.90
14188;DHT22;7175;51.978;5.330;2023-06-19T03:26:12;20.80;99.90
14188;DHT22;7175;51.978;5.330;2023-06-19T03:28:40;20.70;99.90
14188;DHT22;7175;51.978;5.330;2023-06-19T03:31:10;20.70;99.90
14188;DHT22;7175;51.978;5.330;2023-06-19T03:33:38;20.70;99.90
14188;DHT22;7175;51.978;5.330;2023-06-19T03:36:07;20.70;99.90
14188;DHT22;7175;51.978;5.330;2023-06-19T03:38:37;20.70;99.90
14188;DHT22;7175;51.978;5.330;2023-06-19T03:41:05;20.60;99.90
14188;DHT22;7175;51.978;5.330;2023-06-19T03:43:34;20.70;99.90
14188;DHT22;7175;51.978;5.330;2023-06-19T03:46:02;20.60;99.90
14188;DHT22;7175;51.978;5.330;2023-06-19T03:48:30;20.60;99.90
14188;DHT22;7175;51.978;5.330;2023-06-19T03:50:59;20.60;99.90
14188;DHT22;7175;51.978;5.330;2023-06-19T03:53:28;20.60;99.90
14188;DHT22;7175;51.978;5.330;2023-06-19T03:55:58;20.40;99.90
14188;DHT22;7175;51.978;5.330;2023-06-19T03:58:26;20.30;99.90
14188;DHT22;7175;51.978;5.330;2023-06-19T04:00:55;20.20;99.90
14188;DHT22;7175;51.978;5.330;2023-06-19T04:03:25;20.20;99.90
14188;DHT22;7175;51.978;5.330;2023-06-19T04:05:55;20.00;99.90
14188;DHT22;7175;51.978;5.330;2023-06-19T04:08:24;20.00;99.90
14188;DHT22;7175;51.978;5.330;2023-06-19T04:10:53;19.90;99.90
14188;DHT22;7175;51.978;5.330;2023-06-19T04:13:22;19.90;99.90
14188;DHT22;7175;51.978;5.330;2023-06-19T04:15:54;19.90;99.90
14188;DHT22;7175;51.978;5.330;2023-06-19T04:18:23;19.90;99.90
14188;DHT22;7175;51.978;5.330;2023-06-19T04:20:51;19.90;99.90
14188;DHT22;7175;51.978;5.330;2023-06-19T04:23:20;19.90;99.90
14188;DHT22;7175;51.978;5.330;2023-06-19T04:25:50;19.80;99.90
14188;DHT22;7175;51.978;5.330;2023-06-19T04:28:18;19.80;99.90
14188;DHT22;7175;51.978;5.330;2023-06-19T04:30:48;19.70;99.90
14188;DHT22;7175;51.978;5.330;2023-06-19T04:33:17;19.70;99.90
14188;DHT22;7175;51.978;5.330;2023-06-19T04:35:48;19.70;99.90
14188;DHT22;7175;51.978;5.330;2023-06-19T04:38:17;19.80;99.90
14188;DHT22;7175;51.978;5.330;2023-06-19T04:40:45;19.80;99.90
14188;DHT22;7175;51.978;5.330;2023-06-19T04:43:14;19.80;99.90
14188;DHT22;7175;51.978;5.330;2023-06-19T04:45:43;19.80;99.90
14188;DHT22;7175;51.978;5.330;2023-06-19T04:48:14;19.80;99.90
14188;DHT22;7175;51.978;5.330;2023-06-19T04:50:43;19.80;99.90
14188;DHT22;7175;51.978;5.330;2023-06-19T04:53:11;19.80;99.90
14188;DHT22;7175;51.978;5.330;2023-06-19T04:55:40;19.90;99.90
14188;DHT22;7175;51.978;5.330;2023-06-19T04:58:10;20.00;99.90
14188;DHT22;7175;51.978;5.330;2023-06-19T05:00:39;19.80;99.90
14188;DHT22;7175;51.978;5.330;2023-06-19T05:03:08;19.90;99.90
14188;DHT22;7175;51.978;5.330;2023-06-19T05:05:38;20.00;99.90
14188;DHT22;7175;51.978;5.330;2023-06-19T05:08:06;20.00;99.90
14188;DHT22;7175;51.978;5.330;2023-06-19T05:10:34;19.90;99.90
14188;DHT22;7175;51.978;5.330;2023-06-19T05:13:02;19.90;99.90
14188;DHT22;7175;51.978;5.330;2023-06-19T05:15:31;19.90;99.90
14188;DHT22;7175;51.978;5.330;2023-06-19T05:18:00;20.00;99.90
14188;DHT22;7175;51.978;5.330;2023-06-19T05:20:28;20.00;99.90
14188;DHT22;7175;51.978;5.330;2023-06-19T05:22:58;19.90;99.90
14188;DHT22;7175;51.978;5.330;2023-06-19T05:25:26;20.00;99.90
14188;DHT22;7175;51.978;5.330;2023-06-19T05:27:55;19.90;99.90
14188;DHT22;7175;51.978;5.330;2023-06-19T05:30:23;19.90;99.90
14188;DHT22;7175;51.978;5.330;2023-06-19T05:32:52;19.90;99.90
14188;DHT22;7175;51.978;5.330;2023-06-19T05:35:20;20.00;99.90
14188;DHT22;7175;51.978;5.330;2023-06-19T05:37:48;19.90;99.90
14188;DHT22;7175;51.978;5.330;2023-06-19T05:40:18;20.00;99.90
14188;DHT22;7175;51.978;5.330;2023-06-19T05:42:47;19.90;99.90
14188;DHT22;7175;51.978;5.330;2023-06-19T05:45:16;20.00;99.90
14188;DHT22;7175;51.978;5.330;2023-06-19T05:47:44;20.00;99.90
14188;DHT22;7175;51.978;5.330;2023-06-19T05:50:12;20.00;99.90
14188;DHT22;7175;51.978;5.330;2023-06-19T05:52:41;20.00;99.90
14188;DHT22;7175;51.978;5.330;2023-06-19T05:55:10;20.00;99.90
14188;DHT22;7175;51.978;5.330;2023-06-19T05:57:40;20.10;99.90
14188;DHT22;7175;51.978;5.330;2023-06-19T06:00:10;20.10;99.90
14188;DHT22;7175;51.978;5.330;2023-06-19T06:02:41;20.10;99.90
14188;DHT22;7175;51.978;5.330;2023-06-19T06:05:10;20.10;99.90
14188;DHT22;7175;51.978;5.330;2023-06-19T06:07:38;20.10;99.90
14188;DHT22;7175;51.978;5.330;2023-06-19T06:10:08;20.10;99.90
14188;DHT22;7175;51.978;5.330;2023-06-19T06:12:36;20.10;99.90
14188;DHT22;7175;51.978;5.330;2023-06-19T06:15:08;20.10;99.90
14188;DHT22;7175;51.978;5.330;2023-06-19T06:17:36;20.10;99.90
14188;DHT22;7175;51.978;5.330;2023-06-19T06:20:06;20.10;99.90
14188;DHT22;7175;51.978;5.330;2023-06-19T06:22:38;20.20;99.90
14188;DHT22;7175;51.978;5.330;2023-06-19T06:25:08;20.30;99.90
14188;DHT22;7175;51.978;5.330;2023-06-19T06:27:40;20.40;99.90
14188;DHT22;7175;51.978;5.330;2023-06-19T06:30:12;20.40;99.90
14188;DHT22;7175;51.978;5.330;2023-06-19T06:32:41;20.40;99.90
14188;DHT22;7175;51.978;5.330;2023-06-19T06:35:10;20.40;99.90
14188;DHT22;7175;51.978;5.330;2023-06-19T06:37:38;20.60;99.90
14188;DHT22;7175;51.978;5.330;2023-06-19T06:40:08;20.60;99.90
14188;DHT22;7175;51.978;5.330;2023-06-19T06:42:38;20.60;99.90
14188;DHT22;7175;51.978;5.330;2023-06-19T06:45:07;20.60;99.90
14188;DHT22;7175;51.978;5.330;2023-06-19T06:47:37;20.60;99.90
14188;DHT22;7175;51.978;5.330;2023-06-19T06:50:08;20.90;99.90
14188;DHT22;7175;51.978;5.330;2023-06-19T06:52:36;21.20;99.90
14188;DHT22;7175;51.978;5.330;2023-06-19T06:55:05;21.10;99.90
14188;DHT22;7175;51.978;5.330;2023-06-19T06:57:34;21.00;99.90
14188;DHT22;7175;51.978;5.330;2023-06-19T07:00:03;20.90;99.90
14188;DHT22;7175;51.978;5.330;2023-06-19T07:02:32;20.90;99.90
14188;DHT22;7175;51.978;5.330;2023-06-19T07:05:02;20.90;99.90
14188;DHT22;7175;51.978;5.330;2023-06-19T07:07:31;21.00;99.90
14188;DHT22;7175;51.978;5.330;2023-06-19T07:09:59;20.90;99.90
14188;DHT22;7175;51.978;5.330;2023-06-19T07:12:27;21.10;99.90
14188;DHT22;7175;51.978;5.330;2023-06-19T07:14:56;21.10;99.90
14188;DHT22;7175;51.978;5.330;2023-06-19T07:17:24;21.20;99.90
14188;DHT22;7175;51.978;5.330;2023-06-19T07:19:53;21.30;99.90
14188;DHT22;7175;51.978;5.330;2023-06-19T07:22:22;21.30;99.90
14188;DHT22;7175;51.978;5.330;2023-06-19T07:24:52;21.30;99.90
14188;DHT22;7175;51.978;5.330;2023-06-19T07:27:20;21.10;99.90
14188;DHT22;7175;51.978;5.330;2023-06-19T07:29:49;21.30;99.90
14188;DHT22;7175;51.978;5.330;2023-06-19T07:32:17;21.60;99.90
14188;DHT22;7175;51.978;5.330;2023-06-19T07:34:45;21.60;99.90
14188;DHT22;7175;51.978;5.330;2023-06-19T07:37:14;21.50;99.90
14188;DHT22;7175;51.978;5.330;2023-06-19T07:39:47;21.60;99.90
14188;DHT22;7175;51.978;5.330;2023-06-19T07:42:17;21.80;99.90
14188;DHT22;7175;51.978;5.330;2023-06-19T07:44:46;21.70;99.90
14188;DHT22;7175;51.978;5.330;2023-06-19T07:47:16;21.80;99.90
14188;DHT22;7175;51.978;5.330;2023-06-19T07:49:46;21.80;99.90
14188;DHT22;7175;51.978;5.330;2023-06-19T07:52:15;21.70;99.90
14188;DHT22;7175;51.978;5.330;2023-06-19T07:54:53;21.60;99.90
14188;DHT22;7175;51.978;5.330;2023-06-19T07:57:23;21.70;99.90
14188;DHT22;7175;51.978;5.330;2023-06-19T07:59:53;22.00;99.90
14188;DHT22;7175;51.978;5.330;2023-06-19T08:02:22;22.20;99.90
14188;DHT22;7175;51.978;5.330;2023-06-19T08:04:51;22.20;99.90
14188;DHT22;7175;51.978;5.330;2023-06-19T08:07:19;22.10;99.90
14188;DHT22;7175;51.978;5.330;2023-06-19T08:09:47;22.30;99.90
14188;DHT22;7175;51.978;5.330;2023-06-19T08:12:35;22.30;99.90
14188;DHT22;7175;51.978;5.330;2023-06-19T08:15:04;22.10;99.90
14188;DHT22;7175;51.978;5.330;2023-06-19T08:17:32;22.00;99.90
14188;DHT22;7175;51.978;5.330;2023-06-19T08:20:01;21.90;99.90
14188;DHT22;7175;51.978;5.330;2023-06-19T08:22:32;22.10;99.90
14188;DHT22;7175;51.978;5.330;2023-06-19T08:25:00;22.10;99.90
14188;DHT22;7175;51.978;5.330;2023-06-19T08:27:29;22.00;99.90
14188;DHT22;7175;51.978;5.330;2023-06-19T08:29:58;22.00;99.90
14188;DHT22;7175;51.978;5.330;2023-06-19T08:32:27;22.40;99.90
14188;DHT22;7175;51.978;5.330;2023-06-19T08:34:55;22.60;99.90
14188;DHT22;7175;51.978;5.330;2023-06-19T08:37:23;22.60;99.90
14188;DHT22;7175;51.978;5.330;2023-06-19T08:39:51;23.00;99.90
14188;DHT22;7175;51.978;5.330;2023-06-19T08:42:20;23.10;99.90
14188;DHT22;7175;51.978;5.330;2023-06-19T08:44:49;22.70;99.90
14188;DHT22;7175;51.978;5.330;2023-06-19T08:47:18;22.60;99.90
14188;DHT22;7175;51.978;5.330;2023-06-19T08:49:47;22.80;99.90
14188;DHT22;7175;51.978;5.330;2023-06-19T08:52:15;23.10;99.90
14188;DHT22;7175;51.978;5.330;2023-06-19T08:54:44;22.80;99.90
14188;DHT22;7175;51.978;5.330;2023-06-19T08:57:15;23.30;99.90
14188;DHT22;7175;51.978;5.330;2023-06-19T08:59:58;23.20;99.90
14188;DHT22;7175;51.978;5.330;2023-06-19T09:02:39;23.10;99.90
14188;DHT22;7175;51.978;5.330;2023-06-19T09:05:13;23.10;99.90
14188;DHT22;7175;51.978;5.330;2023-06-19T09:07:42;23.40;99.90
14188;DHT22;7175;51.978;5.330;2023-06-19T09:10:15;23.80;99.90
14188;DHT22;7175;51.978;5.330;2023-06-19T09:12:44;23.80;99.90
14188;DHT22;7175;51.978;5.330;2023-06-19T09:15:23;23.70;99.90
14188;DHT22;7175;51.978;5.330;2023-06-19T09:18:01;23.60;99.90
14188;DHT22;7175;51.978;5.330;2023-06-19T09:20:31;23.60;99.90
14188;DHT22;7175;51.978;5.330;2023-06-19T09:22:59;23.30;99.90
14188;DHT22;7175;51.978;5.330;2023-06-19T09:25:28;23.20;99.90
14188;DHT22;7175;51.978;5.330;2023-06-19T09:27:57;23.10;99.90
14188;DHT22;7175;51.978;5.330;2023-06-19T09:30:25;23.30;99.90
14188;DHT22;7175;51.978;5.330;2023-06-19T09:32:54;23.90;99.90
14188;DHT22;7175;51.978;5.330;2023-06-19T09:35:23;24.20;99.90
14188;DHT22;7175;51.978;5.330;2023-06-19T09:37:52;24.40;99.90
14188;DHT22;7175;51.978;5.330;2023-06-19T09:40:21;25.00;99.90
14188;DHT22;7175;51.978;5.330;2023-06-19T09:42:54;24.90;99.90
14188;DHT22;7175;51.978;5.330;2023-06-19T09:45:28;24.70;99.90
14188;DHT22;7175;51.978;5.330;2023-06-19T09:47:57;24.50;99.90
14188;DHT22;7175;51.978;5.330;2023-06-19T09:50:27;24.40;99.90
14188;DHT22;7175;51.978;5.330;2023-06-19T09:52:57;24.70;99.90
14188;DHT22;7175;51.978;5.330;2023-06-19T09:55:28;25.30;99.90
14188;DHT22;7175;51.978;5.330;2023-06-19T09:57:58;25.90;99.90
14188;DHT22;7175;51.978;5.330;2023-06-19T10:00:28;25.60;99.90
14188;DHT22;7175;51.978;5.330;2023-06-19T10:02:59;25.70;99.90
14188;DHT22;7175;51.978;5.330;2023-06-19T10:05:31;25.90;99.90
14188;DHT22;7175;51.978;5.330;2023-06-19T10:08:01;25.60;99.90
14188;DHT22;7175;51.978;5.330;2023-06-19T10:10:31;25.60;99.90
14188;DHT22;7175;51.978;5.330;2023-06-19T10:13:12;26.10;99.90
14188;DHT22;7175;51.978;5.330;2023-06-19T10:15:41;26.50;99.90
14188;DHT22;7175;51.978;5.330;2023-06-19T10:18:14;26.30;99.90
14188;DHT22;7175;51.978;5.330;2023-06-19T10:20:46;26.80;99.90
14188;DHT22;7175;51.978;5.330;2023-06-19T10:23:16;26.60;99.90
14188;DHT22;7175;51.978;5.330;2023-06-19T10:25:48;26.50;99.90
14188;DHT22;7175;51.978;5.330;2023-06-19T10:28:17;26.90;99.90
14188;DHT22;7175;51.978;5.330;2023-06-19T10:30:52;26.80;99.90
14188;DHT22;7175;51.978;5.330;2023-06-19T10:33:22;27.10;99.90
14188;DHT22;7175;51.978;5.330;2023-06-19T10:35:53;27.00;99.90
14188;DHT22;7175;51.978;5.330;2023-06-19T10:38:21;27.50;99.90
14188;DHT22;7175;51.978;5.330;2023-06-19T10:40:49;27.70;99.90
14188;DHT22;7175;51.978;5.330;2023-06-19T10:43:20;27.20;99.90
14188;DHT22;7175;51.978;5.330;2023-06-19T10:45:50;26.90;99.90
14188;DHT22;7175;51.978;5.330;2023-06-19T10:48:19;27.30;99.90
14188;DHT22;7175;51.978;5.330;2023-06-19T10:50:49;27.40;99.90
14188;DHT22;7175;51.978;5.330;2023-06-19T10:53:26;27.00;99.90
14188;DHT22;7175;51.978;5.330;2023-06-19T10:55:55;26.80;99.90
14188;DHT22;7175;51.978;5.330;2023-06-19T10:58:24;27.00;99.90
14188;DHT22;7175;51.978;5.330;2023-06-19T11:00:52;26.90;99.90
14188;DHT22;7175;51.978;5.330;2023-06-19T11:03:21;27.20;99.90
14188;DHT22;7175;51.978;5.330;2023-06-19T11:05:49;27.50;99.90
14188;DHT22;7175;51.978;5.330;2023-06-19T11:08:19;28.00;99.80
14188;DHT22;7175;51.978;5.330;2023-06-19T11:10:49;28.00;98.90
14188;DHT22;7175;51.978;5.330;2023-06-19T11:13:19;28.00;99.10
14188;DHT22;7175;51.978;5.330;2023-06-19T11:15:48;28.00;98.90
14188;DHT22;7175;51.978;5.330;2023-06-19T11:18:18;27.90;98.60
14188;DHT22;7175;51.978;5.330;2023-06-19T11:20:48;27.70;98.40
14188;DHT22;7175;51.978;5.330;2023-06-19T11:23:24;27.40;98.20
14188;DHT22;7175;51.978;5.330;2023-06-19T11:25:54;27.20;98.60
14188;DHT22;7175;51.978;5.330;2023-06-19T11:28:29;27.40;98.70
14188;DHT22;7175;51.978;5.330;2023-06-19T11:30:59;28.00;98.20
14188;DHT22;7175;51.978;5.330;2023-06-19T11:33:29;28.10;97.20
14188;DHT22;7175;51.978;5.330;2023-06-19T11:36:00;28.30;97.60
14188;DHT22;7175;51.978;5.330;2023-06-19T11:38:30;28.70;97.20
14188;DHT22;7175;51.978;5.330;2023-06-19T11:40:59;28.90;96.90
14188;DHT22;7175;51.978;5.330;2023-06-19T11:43:29;28.90;95.90
14188;DHT22;7175;51.978;5.330;2023-06-19T11:46:02;29.20;95.90
14188;DHT22;7175;51.978;5.330;2023-06-19T11:48:31;29.00;95.50
14188;DHT22;7175;51.978;5.330;2023-06-19T11:50:59;29.00;95.50
14188;DHT22;7175;51.978;5.330;2023-06-19T11:53:28;29.00;94.00
14188;DHT22;7175;51.978;5.330;2023-06-19T11:55:56;28.40;94.60
14188;DHT22;7175;51.978;5.330;2023-06-19T11:58:26;28.70;93.60
14188;DHT22;7175;51.978;5.330;2023-06-19T12:00:54;29.20;93.80
14188;DHT22;7175;51.978;5.330;2023-06-19T12:03:23;29.80;93.40
14188;DHT22;7175;51.978;5.330;2023-06-19T12:05:52;30.00;93.10
14188;DHT22;7175;51.978;5.330;2023-06-19T12:08:20;29.90;93.00
14188;DHT22;7175;51.978;5.330;2023-06-19T12:10:48;30.30;92.40
14188;DHT22;7175;51.978;5.330;2023-06-19T12:13:17;30.20;91.40
14188;DHT22;7175;51.978;5.330;2023-06-19T12:15:47;30.10;91.30
14188;DHT22;7175;51.978;5.330;2023-06-19T12:21:56;29.90;91.70
14188;DHT22;7175;51.978;5.330;2023-06-19T12:24:26;30.30;90.90
14188;DHT22;7175;51.978;5.330;2023-06-19T12:26:54;30.30;91.00
14188;DHT22;7175;51.978;5.330;2023-06-19T12:29:22;30.60;90.80
14188;DHT22;7175;51.978;5.330;2023-06-19T12:31:52;30.40;90.60
14188;DHT22;7175;51.978;5.330;2023-06-19T12:34:20;29.90;90.80
14188;DHT22;7175;51.978;5.330;2023-06-19T12:36:58;30.80;89.40
14188;DHT22;7175;51.978;5.330;2023-06-19T12:39:26;30.70;90.30
14188;DHT22;7175;51.978;5.330;2023-06-19T12:41:55;30.70;90.10
14188;DHT22;7175;51.978;5.330;2023-06-19T12:44:23;31.00;89.60
14188;DHT22;7175;51.978;5.330;2023-06-19T12:46:54;30.50;89.30
14188;DHT22;7175;51.978;5.330;2023-06-19T12:49:22;30.10;90.80
14188;DHT22;7175;51.978;5.330;2023-06-19T12:51:50;30.20;90.40
14188;DHT22;7175;51.978;5.330;2023-06-19T12:54:19;30.10;88.80
14188;DHT22;7175;51.978;5.330;2023-06-19T12:56:47;29.90;89.90
14188;DHT22;7175;51.978;5.330;2023-06-19T12:59:17;30.30;90.00
14188;DHT22;7175;51.978;5.330;2023-06-19T13:01:46;30.70;88.00
14188;DHT22;7175;51.978;5.330;2023-06-19T13:04:15;30.90;85.30
14188;DHT22;7175;51.978;5.330;2023-06-19T13:06:44;31.60;85.30
14188;DHT22;7175;51.978;5.330;2023-06-19T13:09:13;31.50;81.90
14188;DHT22;7175;51.978;5.330;2023-06-19T13:11:42;31.20;82.50
14188;DHT22;7175;51.978;5.330;2023-06-19T13:14:10;31.20;84.00
14188;DHT22;7175;51.978;5.330;2023-06-19T13:16:39;31.30;83.80
14188;DHT22;7175;51.978;5.330;2023-06-19T13:19:14;31.20;81.90
14188;DHT22;7175;51.978;5.330;2023-06-19T13:21:43;31.30;80.90
14188;DHT22;7175;51.978;5.330;2023-06-19T13:24:11;31.20;82.50
14188;DHT22;7175;51.978;5.330;2023-06-19T13:26:40;31.20;80.60
14188;DHT22;7175;51.978;5.330;2023-06-19T13:29:08;31.10;79.90
14188;DHT22;7175;51.978;5.330;2023-06-19T13:31:38;31.20;79.70
14188;DHT22;7175;51.978;5.330;2023-06-19T13:34:08;31.70;79.20
14188;DHT22;7175;51.978;5.330;2023-06-19T13:36:38;31.20;78.70
14188;DHT22;7175;51.978;5.330;2023-06-19T13:39:08;31.60;79.40
14188;DHT22;7175;51.978;5.330;2023-06-19T13:41:36;31.50;80.00
14188;DHT22;7175;51.978;5.330;2023-06-19T13:44:06;31.70;78.60
14188;DHT22;7175;51.978;5.330;2023-06-19T13:46:34;31.70;78.80
14188;DHT22;7175;51.978;5.330;2023-06-19T13:49:03;31.30;78.00
14188;DHT22;7175;51.978;5.330;2023-06-19T13:51:31;31.20;77.80
14188;DHT22;7175;51.978;5.330;2023-06-19T13:54:01;31.20;80.20
14188;DHT22;7175;51.978;5.330;2023-06-19T13:56:31;31.90;79.40
14188;DHT22;7175;51.978;5.330;2023-06-19T13:58:59;32.00;76.30
14188;DHT22;7175;51.978;5.330;2023-06-19T14:01:28;31.70;77.80
14188;DHT22;7175;51.978;5.330;2023-06-19T14:03:56;31.20;78.30
14188;DHT22;7175;51.978;5.330;2023-06-19T14:06:25;31.40;81.30
14188;DHT22;7175;51.978;5.330;2023-06-19T14:08:54;31.70;78.90
14188;DHT22;7175;51.978;5.330;2023-06-19T14:11:26;31.80;78.00
14188;DHT22;7175;51.978;5.330;2023-06-19T14:13:56;31.70;76.70
14188;DHT22;7175;51.978;5.330;2023-06-19T14:16:25;32.00;77.30
14188;DHT22;7175;51.978;5.330;2023-06-19T14:18:53;31.30;75.90
14188;DHT22;7175;51.978;5.330;2023-06-19T14:21:22;31.40;75.60
14188;DHT22;7175;51.978;5.330;2023-06-19T14:23:50;31.40;78.00
14188;DHT22;7175;51.978;5.330;2023-06-19T14:26:19;31.20;77.80
14188;DHT22;7175;51.978;5.330;2023-06-19T14:28:48;31.40;80.10
14188;DHT22;7175;51.978;5.330;2023-06-19T14:31:22;31.00;79.70
14188;DHT22;7175;51.978;5.330;2023-06-19T14:33:50;31.10;79.60
14188;DHT22;7175;51.978;5.330;2023-06-19T14:36:19;31.20;78.70
14188;DHT22;7175;51.978;5.330;2023-06-19T14:38:47;31.10;76.90
14188;DHT22;7175;51.978;5.330;2023-06-19T14:41:16;31.00;79.50
14188;DHT22;7175;51.978;5.330;2023-06-19T14:43:44;31.40;81.00
14188;DHT22;7175;51.978;5.330;2023-06-19T14:46:14;31.40;77.60
14188;DHT22;7175;51.978;5.330;2023-06-19T14:49:02;31.10;80.20
14188;DHT22;7175;51.978;5.330;2023-06-19T14:51:31;31.10;80.00
14188;DHT22;7175;51.978;5.330;2023-06-19T14:54:00;30.90;80.30
14188;DHT22;7175;51.978;5.330;2023-06-19T14:56:29;30.90;81.40
14188;DHT22;7175;51.978;5.330;2023-06-19T14:58:58;30.80;80.00
14188;DHT22;7175;51.978;5.330;2023-06-19T15:01:28;30.80;80.40
14188;DHT22;7175;51.978;5.330;2023-06-19T15:03:56;30.40;80.70
14188;DHT22;7175;51.978;5.330;2023-06-19T15:06:25;30.30;80.70
14188;DHT22;7175;51.978;5.330;2023-06-19T15:08:53;30.40;79.50
14188;DHT22;7175;51.978;5.330;2023-06-19T15:11:24;30.00;82.90
14188;DHT22;7175;51.978;5.330;2023-06-19T15:13:53;30.00;81.90
14188;DHT22;7175;51.978;5.330;2023-06-19T15:16:24;30.10;82.00
14188;DHT22;7175;51.978;5.330;2023-06-19T15:18:54;30.00;81.00
14188;DHT22;7175;51.978;5.330;2023-06-19T15:21:22;29.80;81.90
14188;DHT22;7175;51.978;5.330;2023-06-19T15:23:53;29.60;81.50
14188;DHT22;7175;51.978;5.330;2023-06-19T15:26:22;29.00;84.10
14188;DHT22;7175;51.978;5.330;2023-06-19T15:28:50;29.00;86.20
14188;DHT22;7175;51.978;5.330;2023-06-19T15:31:20;29.20;85.20
14188;DHT22;7175;51.978;5.330;2023-06-19T15:33:50;29.10;83.00
14188;DHT22;7175;51.978;5.330;2023-06-19T15:36:20;29.10;83.00
14188;DHT22;7175;51.978;5.330;2023-06-19T15:38:49;28.70;86.10
14188;DHT22;7175;51.978;5.330;2023-06-19T15:41:17;28.60;87.00
14188;DHT22;7175;51.978;5.330;2023-06-19T15:43:45;28.60;85.90
14188;DHT22;7175;51.978;5.330;2023-06-19T15:46:14;28.50;85.80
14188;DHT22;7175;51.978;5.330;2023-06-19T15:48:43;28.30;84.60
14188;DHT22;7175;51.978;5.330;2023-06-19T15:51:11;28.00;86.30
14188;DHT22;7175;51.978;5.330;2023-06-19T15:53:41;28.20;87.50
14188;DHT22;7175;51.978;5.330;2023-06-19T15:56:10;28.20;87.40
14188;DHT22;7175;51.978;5.330;2023-06-19T15:58:38;27.90;87.30
14188;DHT22;7175;51.978;5.330;2023-06-19T16:01:06;28.00;87.60
14188;DHT22;7175;51.978;5.330;2023-06-19T16:03:35;28.20;88.60
14188;DHT22;7175;51.978;5.330;2023-06-19T16:06:04;28.10;89.10